createdAt,value
2017-10-31T00:01:02.211Z,7.57
2017-10-31T00:02:07.958Z,7.63
2017-10-31T00:03:13.705Z,7.65
2017-10-31T00:04:19.441Z,7.66
2017-10-31T00:05:25.208Z,7.69
2017-10-31T00:06:30.745Z,7.63
2017-10-31T00:07:36.481Z,7.62
2017-10-31T00:08:42.221Z,7.60
2017-10-31T00:09:47.960Z,7.63
2017-10-31T00:10:53.728Z,7.68
2017-10-31T00:12:00.232Z,7.72
2017-10-31T00:13:05.972Z,7.72
2017-10-31T00:14:11.727Z,7.76
2017-10-31T00:15:17.256Z,7.77
2017-10-31T00:16:22.831Z,7.76
2017-10-31T00:17:28.577Z,7.81
2017-10-31T00:18:34.316Z,7.79
2017-10-31T00:19:40.836Z,7.80
2017-10-31T00:20:46.570Z,7.87
2017-10-31T00:21:52.345Z,7.87
2017-10-31T00:22:58.076Z,7.89
2017-10-31T00:24:03.813Z,7.90
2017-10-31T00:25:09.557Z,7.94
2017-10-31T00:26:15.292Z,7.96
2017-10-31T00:27:21.044Z,7.94
2017-10-31T00:28:26.526Z,8.02
2017-10-31T00:29:33.025Z,8.06
2017-10-31T00:30:38.757Z,8.06
2017-10-31T00:31:44.501Z,8.08
2017-10-31T00:32:50.265Z,8.10
2017-10-31T00:33:56.055Z,8.18
2017-10-31T00:35:01.793Z,8.23
2017-10-31T00:36:08.283Z,8.24
2017-10-31T00:37:14.079Z,8.24
2017-10-31T00:38:20.600Z,8.28
2017-10-31T00:39:26.597Z,8.33
2017-10-31T00:40:33.092Z,8.37
2017-10-31T00:41:38.832Z,8.28
2017-10-31T00:42:44.587Z,8.32
2017-10-31T00:43:50.611Z,8.30
2017-10-31T00:44:56.356Z,8.38
2017-10-31T00:46:02.092Z,8.38
2017-10-31T00:47:07.914Z,8.43
2017-10-31T00:48:13.812Z,8.41
2017-10-31T00:49:19.582Z,8.43
2017-10-31T00:50:25.342Z,8.45
2017-10-31T00:51:31.086Z,8.43
2017-10-31T00:52:36.832Z,8.44
2017-10-31T00:53:42.576Z,8.49
2017-10-31T00:54:48.333Z,8.45
2017-10-31T00:55:54.102Z,8.43
2017-10-31T00:56:59.844Z,8.41
2017-10-31T00:58:05.583Z,8.41
2017-10-31T00:59:11.320Z,8.39
2017-10-31T01:00:17.093Z,8.40
2017-10-31T01:01:22.831Z,8.39
2017-10-31T01:02:28.601Z,8.35
2017-10-31T01:03:34.337Z,8.32
2017-10-31T01:04:40.088Z,8.33
2017-10-31T01:05:45.868Z,8.26
2017-10-31T01:06:51.623Z,8.25
2017-10-31T01:07:57.353Z,8.23
2017-10-31T01:09:03.092Z,8.18
2017-10-31T01:10:08.829Z,8.10
2017-10-31T01:11:14.628Z,8.00
2017-10-31T01:12:20.416Z,7.96
2017-10-31T01:13:25.952Z,7.89
2017-10-31T01:14:31.691Z,7.85
2017-10-31T01:15:37.432Z,7.84
2017-10-31T01:16:43.225Z,7.82
2017-10-31T01:17:48.977Z,7.81
2017-10-31T01:18:54.723Z,7.75
2017-10-31T01:20:00.468Z,7.81
2017-10-31T01:21:06.221Z,7.88
2017-10-31T01:22:11.991Z,7.90
2017-10-31T01:23:17.734Z,7.90
2017-10-31T01:24:23.478Z,7.90
2017-10-31T01:25:29.238Z,7.96
2017-10-31T01:26:34.978Z,7.98
2017-10-31T01:27:41.545Z,7.97
2017-10-31T01:28:48.048Z,8.03
2017-10-31T01:29:53.790Z,8.02
2017-10-31T01:30:59.530Z,8.02
2017-10-31T01:32:05.265Z,8.11
2017-10-31T01:33:11.070Z,8.12
2017-10-31T01:34:17.593Z,8.08
2017-10-31T01:35:23.334Z,8.18
2017-10-31T01:36:29.073Z,8.27
2017-10-31T01:37:34.813Z,8.23
2017-10-31T01:38:40.588Z,8.17
2017-10-31T01:39:46.336Z,8.21
2017-10-31T01:40:52.842Z,8.24
2017-10-31T01:41:58.405Z,8.28
2017-10-31T01:43:03.813Z,8.24
2017-10-31T01:44:09.584Z,8.25
2017-10-31T01:45:15.319Z,8.25
2017-10-31T01:46:21.053Z,8.29
2017-10-31T01:47:26.596Z,8.29
2017-10-31T01:48:32.328Z,8.29
2017-10-31T01:49:38.094Z,8.26
2017-10-31T01:50:43.836Z,8.26
2017-10-31T01:51:49.572Z,8.29
2017-10-31T01:52:55.320Z,8.27
2017-10-31T01:54:01.839Z,8.27
2017-10-31T01:55:07.606Z,8.24
2017-10-31T01:56:13.350Z,8.29
2017-10-31T01:57:19.112Z,8.33
2017-10-31T01:58:24.852Z,8.37
2017-10-31T01:59:31.354Z,8.44
2017-10-31T02:00:36.220Z,8.45
2017-10-31T02:01:41.612Z,8.48
2017-10-31T02:02:47.013Z,8.43
2017-10-31T02:03:52.404Z,8.51
2017-10-31T02:04:58.145Z,8.55
2017-10-31T02:06:03.909Z,8.63
2017-10-31T02:07:09.641Z,8.62
2017-10-31T02:08:15.124Z,8.58
2017-10-31T02:09:20.865Z,8.55
2017-10-31T02:10:26.600Z,8.53
2017-10-31T02:11:32.369Z,8.54
2017-10-31T02:12:38.196Z,8.52
2017-10-31T02:13:43.944Z,8.55
2017-10-31T02:14:49.696Z,8.51
2017-10-31T02:15:55.089Z,8.47
2017-10-31T02:17:00.862Z,8.42
2017-10-31T02:18:06.601Z,8.40
2017-10-31T02:19:11.649Z,8.38
2017-10-31T02:20:16.691Z,8.38
2017-10-31T02:21:21.741Z,8.40
2017-10-31T02:22:27.594Z,8.52
2017-10-31T02:23:32.993Z,8.49
2017-10-31T02:24:38.400Z,8.52
2017-10-31T02:25:43.688Z,8.52
2017-10-31T02:26:49.434Z,8.50
2017-10-31T02:27:54.504Z,8.44
2017-10-31T02:28:59.576Z,8.43
2017-10-31T02:30:05.728Z,8.44
2017-10-31T02:31:11.541Z,8.62
2017-10-31T02:32:16.594Z,8.71
2017-10-31T02:33:22.439Z,8.75
2017-10-31T02:34:28.278Z,8.69
2017-10-31T02:35:34.091Z,8.71
2017-10-31T02:36:39.485Z,8.64
2017-10-31T02:37:44.892Z,8.66
2017-10-31T02:39:07.404Z,8.81
2017-10-31T02:40:14.018Z,8.71
2017-10-31T02:41:19.077Z,8.61
2017-10-31T02:42:24.132Z,8.70
2017-10-31T02:43:30.289Z,8.74
2017-10-31T02:44:35.364Z,8.78
2017-10-31T02:45:40.400Z,8.80
2017-10-31T02:46:47.306Z,8.86
2017-10-31T02:47:53.480Z,8.91
2017-10-31T02:48:58.516Z,8.93
2017-10-31T02:50:04.273Z,8.90
2017-10-31T02:51:09.321Z,8.87
2017-10-31T02:52:15.068Z,8.80
2017-10-31T02:53:21.684Z,8.85
2017-10-31T02:54:26.732Z,8.87
2017-10-31T02:55:31.804Z,8.91
2017-10-31T02:56:36.852Z,9.01
2017-10-31T02:57:41.901Z,8.98
2017-10-31T02:58:46.968Z,8.98
2017-10-31T02:59:52.261Z,8.93
2017-10-31T03:00:57.332Z,8.97
2017-10-31T03:02:02.725Z,8.98
2017-10-31T03:03:08.470Z,8.89
2017-10-31T03:04:14.209Z,8.95
2017-10-31T03:05:19.606Z,8.93
2017-10-31T03:06:24.708Z,8.94
2017-10-31T03:07:29.552Z,8.98
2017-10-31T03:08:35.288Z,9.00
2017-10-31T03:09:40.348Z,9.05
2017-10-31T03:10:45.392Z,9.08
2017-10-31T03:11:51.236Z,9.11
2017-10-31T03:12:56.973Z,9.07
2017-10-31T03:14:03.884Z,9.16
2017-10-31T03:15:09.273Z,9.10
2017-10-31T03:16:14.677Z,9.06
2017-10-31T03:17:20.852Z,9.08
2017-10-31T03:18:26.249Z,9.13
2017-10-31T03:19:31.309Z,9.14
2017-10-31T03:20:36.706Z,9.17
2017-10-31T03:21:41.778Z,9.14
2017-10-31T03:22:46.853Z,9.15
2017-10-31T03:23:51.693Z,9.12
2017-10-31T03:24:56.745Z,9.13
2017-10-31T03:26:01.797Z,9.10
2017-10-31T03:27:06.854Z,9.16
2017-10-31T03:28:11.926Z,9.16
2017-10-31T03:29:17.315Z,9.04
2017-10-31T03:30:23.073Z,9.09
2017-10-31T03:31:28.138Z,9.16
2017-10-31T03:32:34.293Z,9.20
2017-10-31T03:33:40.137Z,9.15
2017-10-31T03:34:46.304Z,9.22
2017-10-31T03:35:51.340Z,9.11
2017-10-31T03:36:56.403Z,9.06
2017-10-31T03:38:01.800Z,9.19
2017-10-31T03:39:07.217Z,9.19
2017-10-31T03:40:13.113Z,9.19
2017-10-31T03:41:17.956Z,9.22
2017-10-31T03:42:23.353Z,9.21
2017-10-31T03:43:28.400Z,9.03
2017-10-31T03:44:34.195Z,8.98
2017-10-31T03:45:40.008Z,8.95
2017-10-31T03:46:45.061Z,9.00
2017-10-31T03:47:50.092Z,9.05
2017-10-31T03:48:55.139Z,9.01
2017-10-31T03:50:00.212Z,9.02
2017-10-31T03:51:05.312Z,9.08
2017-10-31T03:52:10.363Z,9.09
2017-10-31T03:53:15.419Z,9.11
2017-10-31T03:54:20.801Z,9.13
2017-10-31T03:55:25.873Z,9.14
2017-10-31T03:56:30.925Z,9.13
2017-10-31T03:57:36.313Z,9.14
2017-10-31T03:58:41.355Z,9.17
2017-10-31T03:59:47.532Z,9.21
2017-10-31T04:00:52.468Z,9.12
2017-10-31T04:01:57.313Z,9.16
2017-10-31T04:03:03.174Z,9.13
2017-10-31T04:04:08.988Z,9.10
2017-10-31T04:05:14.384Z,9.12
2017-10-31T04:06:20.150Z,9.17
2017-10-31T04:07:25.200Z,9.14
2017-10-31T04:08:30.586Z,9.11
2017-10-31T04:09:36.356Z,9.11
2017-10-31T04:10:41.756Z,9.16
2017-10-31T04:11:47.175Z,9.27
2017-10-31T04:12:52.223Z,9.36
2017-10-31T04:13:57.621Z,9.42
2017-10-31T04:15:03.800Z,9.43
2017-10-31T04:16:08.853Z,9.37
2017-10-31T04:17:14.619Z,9.42
2017-10-31T04:18:20.013Z,9.42
2017-10-31T04:19:25.746Z,9.29
2017-10-31T04:20:31.285Z,9.25
2017-10-31T04:21:36.668Z,9.31
2017-10-31T04:22:43.941Z,9.27
2017-10-31T04:23:49.685Z,9.34
2017-10-31T04:24:56.936Z,9.35
2017-10-31T04:26:02.678Z,9.35
2017-10-31T04:27:08.403Z,9.24
2017-10-31T04:28:13.484Z,9.33
2017-10-31T04:29:19.998Z,9.34
2017-10-31T04:30:25.757Z,9.32
2017-10-31T04:31:31.501Z,9.38
2017-10-31T04:32:37.224Z,9.33
2017-10-31T04:33:42.997Z,9.23
2017-10-31T04:34:48.736Z,9.18
2017-10-31T04:35:54.472Z,9.26
2017-10-31T04:37:00.208Z,9.23
2017-10-31T04:38:05.595Z,9.13
2017-10-31T04:39:11.361Z,9.07
2017-10-31T04:40:17.092Z,9.12
2017-10-31T04:41:22.829Z,9.11
2017-10-31T04:42:28.573Z,9.14
2017-10-31T04:43:34.317Z,9.18
2017-10-31T04:44:40.072Z,9.15
2017-10-31T04:45:45.803Z,9.00
2017-10-31T04:46:51.548Z,9.01
2017-10-31T04:47:57.288Z,9.15
2017-10-31T04:49:03.033Z,9.14
2017-10-31T04:50:08.812Z,9.15
2017-10-31T04:51:14.556Z,9.14
2017-10-31T04:52:20.858Z,9.23
2017-10-31T04:53:26.601Z,9.26
2017-10-31T04:54:32.337Z,9.25
2017-10-31T04:55:37.407Z,9.26
2017-10-31T04:56:42.472Z,9.25
2017-10-31T04:57:47.524Z,9.19
2017-10-31T04:58:52.576Z,9.19
2017-10-31T04:59:58.315Z,9.11
2017-10-31T05:01:03.891Z,9.03
2017-10-31T05:02:10.384Z,9.04
2017-10-31T05:03:16.136Z,9.12
2017-10-31T05:04:21.881Z,9.17
2017-10-31T05:05:27.619Z,9.18
2017-10-31T05:06:33.170Z,9.12
2017-10-31T05:07:38.922Z,9.09
2017-10-31T05:08:44.661Z,9.05
2017-10-31T05:09:50.400Z,8.88
2017-10-31T05:10:56.145Z,8.91
2017-10-31T05:12:01.915Z,8.88
2017-10-31T05:13:07.658Z,8.95
2017-10-31T05:14:14.168Z,9.02
2017-10-31T05:15:19.912Z,8.98
2017-10-31T05:16:25.661Z,8.99
2017-10-31T05:17:31.417Z,9.03
2017-10-31T05:18:37.145Z,9.03
2017-10-31T05:19:42.877Z,8.90
2017-10-31T05:20:48.617Z,8.83
2017-10-31T05:21:54.355Z,8.90
2017-10-31T05:23:00.125Z,8.88
2017-10-31T05:24:05.882Z,8.85
2017-10-31T05:25:11.606Z,8.83
2017-10-31T05:26:17.340Z,8.91
2017-10-31T05:27:23.071Z,8.92
2017-10-31T05:28:28.868Z,8.87
2017-10-31T05:29:35.368Z,8.86
2017-10-31T05:30:41.113Z,8.77
2017-10-31T05:31:46.848Z,8.67
2017-10-31T05:32:52.587Z,8.67
2017-10-31T05:33:58.338Z,8.68
2017-10-31T05:35:04.086Z,8.57
2017-10-31T05:36:09.828Z,8.62
2017-10-31T05:37:15.575Z,8.81
2017-10-31T05:38:21.321Z,8.82
2017-10-31T05:39:27.107Z,8.82
2017-10-31T05:40:32.906Z,8.82
2017-10-31T05:41:38.640Z,8.79
2017-10-31T05:42:44.384Z,8.85
2017-10-31T05:43:51.634Z,8.85
2017-10-31T05:44:57.402Z,8.85
2017-10-31T05:46:03.138Z,8.84
2017-10-31T05:47:08.881Z,8.84
2017-10-31T05:48:14.620Z,8.89
2017-10-31T05:49:20.352Z,8.80
2017-10-31T05:50:26.120Z,8.65
2017-10-31T05:51:31.861Z,8.63
2017-10-31T05:52:37.592Z,8.64
2017-10-31T05:53:44.110Z,8.64
2017-10-31T05:54:49.844Z,8.66
2017-10-31T05:55:55.408Z,8.60
2017-10-31T05:57:01.136Z,8.54
2017-10-31T05:58:06.884Z,8.52
2017-10-31T05:59:12.621Z,8.59
2017-10-31T06:00:18.349Z,8.57
2017-10-31T06:01:24.112Z,8.54
2017-10-31T06:02:29.856Z,8.60
2017-10-31T06:03:35.592Z,8.65
2017-10-31T06:04:41.321Z,8.69
2017-10-31T06:05:47.063Z,8.73
2017-10-31T06:06:52.837Z,8.74
2017-10-31T06:07:58.583Z,8.72
2017-10-31T06:09:03.721Z,8.67
2017-10-31T06:10:10.224Z,8.77
2017-10-31T06:11:15.982Z,8.79
2017-10-31T06:12:21.749Z,8.75
2017-10-31T06:13:27.498Z,8.76
2017-10-31T06:14:34.537Z,8.71
2017-10-31T06:15:40.267Z,8.70
2017-10-31T06:16:45.801Z,8.67
2017-10-31T06:17:51.571Z,8.62
2017-10-31T06:18:57.585Z,8.54
2017-10-31T06:20:03.321Z,8.60
2017-10-31T06:21:09.070Z,8.66
2017-10-31T06:22:20.149Z,8.69
2017-10-31T06:23:31.320Z,8.67
2017-10-31T06:24:42.465Z,8.67
2017-10-31T06:25:53.584Z,8.72
2017-10-31T06:27:06.228Z,8.77
2017-10-31T06:28:17.413Z,8.79
2017-10-31T06:29:29.605Z,8.73
2017-10-31T06:30:41.793Z,8.77
2017-10-31T06:31:52.945Z,8.77
2017-10-31T06:32:58.685Z,8.83
2017-10-31T06:34:04.428Z,8.86
2017-10-31T06:35:10.196Z,8.86
2017-10-31T06:36:15.742Z,8.88
2017-10-31T06:37:21.472Z,8.87
2017-10-31T06:38:27.212Z,8.86
2017-10-31T06:39:32.945Z,8.93
2017-10-31T06:40:38.703Z,8.98
2017-10-31T06:41:45.196Z,9.00
2017-10-31T06:42:50.954Z,8.93
2017-10-31T06:43:57.469Z,8.91
2017-10-31T06:45:03.211Z,8.92
2017-10-31T06:46:08.974Z,8.90
2017-10-31T06:47:16.228Z,8.97
2017-10-31T06:48:21.972Z,9.02
2017-10-31T06:49:27.730Z,8.90
2017-10-31T06:50:33.472Z,8.86
2017-10-31T06:51:39.237Z,8.86
2017-10-31T06:52:45.022Z,8.85
2017-10-31T06:53:50.768Z,8.89
2017-10-31T06:54:56.520Z,8.90
2017-10-31T06:56:02.260Z,8.90
2017-10-31T06:57:08.033Z,8.89
2017-10-31T06:58:13.436Z,8.92
2017-10-31T06:59:19.173Z,8.97
2017-10-31T07:00:24.909Z,9.01
2017-10-31T07:01:30.650Z,9.05
2017-10-31T07:02:36.420Z,8.97
2017-10-31T07:03:42.183Z,9.04
2017-10-31T07:04:48.685Z,8.97
2017-10-31T07:05:54.425Z,9.00
2017-10-31T07:07:00.168Z,8.97
2017-10-31T07:08:05.940Z,9.01
2017-10-31T07:09:11.689Z,9.05
2017-10-31T07:10:17.429Z,8.89
2017-10-31T07:11:23.176Z,8.87
2017-10-31T07:12:28.920Z,8.82
2017-10-31T07:13:34.857Z,8.92
2017-10-31T07:14:40.597Z,8.90
2017-10-31T07:15:46.329Z,8.92
2017-10-31T07:16:52.069Z,8.92
2017-10-31T07:17:57.808Z,8.94
2017-10-31T07:19:03.578Z,9.02
2017-10-31T07:20:09.321Z,9.10
2017-10-31T07:21:15.065Z,9.13
2017-10-31T07:22:20.853Z,9.17
2017-10-31T07:23:26.597Z,9.21
2017-10-31T07:24:32.369Z,9.22
2017-10-31T07:25:38.110Z,9.24
2017-10-31T07:26:43.854Z,9.24
2017-10-31T07:27:49.679Z,9.23
2017-10-31T07:28:56.184Z,9.40
2017-10-31T07:30:01.949Z,9.45
2017-10-31T07:31:07.718Z,9.51
2017-10-31T07:32:14.245Z,9.45
2017-10-31T07:33:19.992Z,9.34
2017-10-31T07:34:26.678Z,9.20
2017-10-31T07:35:33.194Z,9.16
2017-10-31T07:36:38.938Z,9.31
2017-10-31T07:37:44.678Z,9.45
2017-10-31T07:38:50.433Z,9.52
2017-10-31T07:39:56.220Z,9.49
2017-10-31T07:41:01.995Z,9.53
2017-10-31T07:42:07.727Z,9.51
2017-10-31T07:43:13.536Z,9.65
2017-10-31T07:44:20.038Z,9.57
2017-10-31T07:45:25.776Z,9.62
2017-10-31T07:46:31.545Z,9.70
2017-10-31T07:47:37.299Z,9.78
2017-10-31T07:48:43.812Z,9.83
2017-10-31T07:49:49.561Z,10.02
2017-10-31T07:50:55.102Z,10.10
2017-10-31T07:52:00.869Z,10.18
2017-10-31T07:53:06.620Z,10.23
2017-10-31T07:54:13.141Z,10.37
2017-10-31T07:55:18.884Z,10.47
2017-10-31T07:56:24.638Z,10.62
2017-10-31T07:57:30.526Z,10.81
2017-10-31T07:58:37.036Z,10.93
2017-10-31T07:59:42.825Z,10.98
2017-10-31T08:00:48.578Z,11.01
2017-10-31T08:01:54.323Z,11.04
2017-10-31T08:03:00.095Z,11.04
2017-10-31T08:04:05.840Z,11.05
2017-10-31T08:05:11.593Z,11.06
2017-10-31T08:06:18.875Z,11.03
2017-10-31T08:07:24.620Z,11.06
2017-10-31T08:08:31.889Z,11.29
2017-10-31T08:09:37.636Z,11.36
2017-10-31T08:10:43.380Z,11.26
2017-10-31T08:11:49.126Z,11.29
2017-10-31T08:12:54.881Z,11.21
2017-10-31T08:14:00.660Z,11.39
2017-10-31T08:15:06.069Z,11.35
2017-10-31T08:16:12.637Z,11.48
2017-10-31T08:17:18.400Z,11.43
2017-10-31T08:18:23.736Z,11.59
2017-10-31T08:19:29.521Z,11.45
2017-10-31T08:20:35.274Z,11.46
2017-10-31T08:21:41.792Z,11.64
2017-10-31T08:22:47.565Z,11.59
2017-10-31T08:23:53.342Z,11.68
2017-10-31T08:24:59.130Z,11.61
2017-10-31T08:26:04.898Z,11.52
2017-10-31T08:27:10.653Z,11.59
2017-10-31T08:28:16.800Z,11.75
2017-10-31T08:29:22.641Z,11.73
2017-10-31T08:30:29.196Z,11.70
2017-10-31T08:31:35.721Z,11.80
2017-10-31T08:32:41.478Z,11.90
2017-10-31T08:33:47.245Z,11.87
2017-10-31T08:34:53.424Z,11.70
2017-10-31T08:35:59.228Z,11.77
2017-10-31T08:37:05.760Z,11.57
2017-10-31T08:38:11.507Z,11.59
2017-10-31T08:39:18.182Z,11.64
2017-10-31T08:40:23.580Z,11.57
2017-10-31T08:41:29.370Z,11.67
2017-10-31T08:42:35.124Z,11.48
2017-10-31T08:43:40.901Z,11.42
2017-10-31T08:44:46.456Z,11.50
2017-10-31T08:45:52.012Z,11.74
2017-10-31T08:46:57.781Z,11.87
2017-10-31T08:48:03.534Z,11.96
2017-10-31T08:49:10.048Z,11.98
2017-10-31T08:50:15.797Z,11.96
2017-10-31T08:51:21.572Z,11.80
2017-10-31T08:52:27.357Z,11.78
2017-10-31T08:53:33.119Z,11.91
2017-10-31T08:54:38.865Z,11.81
2017-10-31T08:55:44.627Z,11.77
2017-10-31T08:56:50.388Z,11.78
2017-10-31T08:57:56.936Z,11.74
2017-10-31T08:59:02.684Z,11.62
2017-10-31T09:00:08.103Z,11.45
2017-10-31T09:01:13.850Z,11.42
2017-10-31T09:02:19.662Z,11.45
2017-10-31T09:03:25.436Z,11.34
2017-10-31T09:04:31.997Z,11.51
2017-10-31T09:05:37.746Z,11.69
2017-10-31T09:06:44.278Z,11.91
2017-10-31T09:07:50.046Z,11.78
2017-10-31T09:08:55.809Z,11.81
2017-10-31T09:10:01.631Z,12.05
2017-10-31T09:11:07.377Z,12.22
2017-10-31T09:12:13.893Z,12.34
2017-10-31T09:13:19.461Z,12.37
2017-10-31T09:14:25.278Z,12.43
2017-10-31T09:15:31.022Z,12.44
2017-10-31T09:16:36.780Z,12.68
2017-10-31T09:17:43.299Z,12.66
2017-10-31T09:18:49.047Z,12.61
2017-10-31T09:19:54.936Z,12.69
2017-10-31T09:21:01.465Z,12.70
2017-10-31T09:22:07.277Z,12.80
2017-10-31T09:23:13.075Z,12.84
2017-10-31T09:24:18.896Z,12.87
2017-10-31T09:25:25.514Z,12.81
2017-10-31T09:26:31.352Z,12.75
2017-10-31T09:27:37.889Z,12.94
2017-10-31T09:28:44.538Z,13.11
2017-10-31T09:29:51.056Z,13.17
2017-10-31T09:30:57.028Z,13.13
2017-10-31T09:32:02.615Z,13.26
2017-10-31T09:33:09.129Z,13.34
2017-10-31T09:34:14.884Z,13.44
2017-10-31T09:35:20.759Z,13.58
2017-10-31T09:36:27.144Z,13.59
2017-10-31T09:37:32.954Z,13.76
2017-10-31T09:38:38.946Z,14.10
2017-10-31T09:39:45.169Z,14.19
2017-10-31T09:40:51.480Z,14.40
2017-10-31T09:41:57.429Z,14.50
2017-10-31T09:43:03.256Z,14.56
2017-10-31T09:44:09.225Z,14.79
2017-10-31T09:45:15.812Z,14.90
2017-10-31T09:46:21.573Z,15.07
2017-10-31T09:47:27.430Z,15.39
2017-10-31T09:48:33.233Z,15.32
2017-10-31T09:49:39.809Z,15.44
2017-10-31T09:50:45.801Z,15.38
2017-10-31T09:51:52.456Z,15.04
2017-10-31T09:52:58.169Z,14.96
2017-10-31T09:54:04.114Z,15.00
2017-10-31T09:55:09.895Z,15.00
2017-10-31T09:56:15.814Z,15.04
2017-10-31T09:57:21.766Z,14.99
2017-10-31T09:58:28.744Z,14.76
2017-10-31T09:59:35.068Z,14.47
2017-10-31T10:00:41.090Z,14.37
2017-10-31T10:01:47.689Z,14.29
2017-10-31T10:02:53.621Z,14.01
2017-10-31T10:04:00.243Z,14.04
2017-10-31T10:05:06.265Z,14.14
2017-10-31T10:06:12.389Z,14.16
2017-10-31T10:07:19.165Z,14.14
2017-10-31T10:08:24.906Z,14.16
2017-10-31T10:09:30.974Z,14.28
2017-10-31T10:10:37.004Z,14.37
2017-10-31T10:11:43.199Z,14.39
2017-10-31T10:12:50.865Z,14.45
2017-10-31T10:13:57.212Z,14.46
2017-10-31T10:15:03.285Z,14.35
2017-10-31T10:16:09.513Z,14.31
2017-10-31T10:17:15.666Z,14.44
2017-10-31T10:18:22.839Z,14.57
2017-10-31T10:19:29.707Z,14.71
2017-10-31T10:20:35.857Z,14.95
2017-10-31T10:21:41.908Z,15.35
2017-10-31T10:22:47.936Z,15.55
2017-10-31T10:23:54.104Z,15.67
2017-10-31T10:25:00.270Z,15.62
2017-10-31T10:26:06.475Z,15.80
2017-10-31T10:27:13.456Z,16.12
2017-10-31T10:28:20.448Z,16.35
2017-10-31T10:29:26.598Z,16.41
2017-10-31T10:30:33.434Z,16.17
2017-10-31T10:31:39.746Z,15.80
2017-10-31T10:32:46.089Z,15.84
2017-10-31T10:33:52.227Z,15.93
2017-10-31T10:34:58.683Z,15.52
2017-10-31T10:36:05.141Z,15.36
2017-10-31T10:37:11.307Z,15.12
2017-10-31T10:38:17.325Z,14.88
2017-10-31T10:39:23.452Z,14.64
2017-10-31T10:40:30.357Z,14.57
2017-10-31T10:41:36.611Z,14.62
2017-10-31T10:42:42.914Z,14.40
2017-10-31T10:43:48.974Z,14.34
2017-10-31T10:44:55.654Z,14.23
2017-10-31T10:46:01.544Z,14.26
2017-10-31T10:47:07.979Z,14.19
2017-10-31T10:48:15.672Z,14.22
2017-10-31T10:49:21.945Z,14.29
2017-10-31T10:50:29.199Z,14.30
2017-10-31T10:51:35.756Z,14.45
2017-10-31T10:52:43.604Z,14.48
2017-10-31T10:53:50.603Z,14.51
2017-10-31T10:54:56.870Z,14.43
2017-10-31T10:56:02.941Z,14.54
2017-10-31T10:57:09.140Z,14.65
2017-10-31T10:58:16.672Z,14.65
2017-10-31T10:59:23.010Z,14.60
2017-10-31T11:00:33.863Z,14.38
2017-10-31T11:01:39.309Z,14.38
2017-10-31T11:02:44.843Z,14.42
2017-10-31T11:03:50.564Z,14.54
2017-10-31T11:04:57.657Z,14.55
2017-10-31T11:06:03.824Z,14.42
2017-10-31T11:07:11.494Z,14.28
2017-10-31T11:08:17.802Z,14.33
2017-10-31T11:09:23.601Z,14.30
2017-10-31T11:10:29.838Z,14.27
2017-10-31T11:11:36.102Z,14.27
2017-10-31T11:12:43.008Z,14.32
2017-10-31T11:13:49.215Z,14.25
2017-10-31T11:14:55.424Z,14.01
2017-10-31T11:16:03.401Z,14.04
2017-10-31T11:17:10.258Z,14.16
2017-10-31T11:18:16.206Z,14.24
2017-10-31T11:19:23.134Z,14.16
2017-10-31T11:20:29.144Z,13.98
2017-10-31T11:21:35.180Z,13.74
2017-10-31T11:22:41.416Z,13.64
2017-10-31T11:23:47.997Z,13.53
2017-10-31T11:24:54.050Z,13.37
2017-10-31T11:26:00.195Z,13.27
2017-10-31T11:27:06.333Z,13.40
2017-10-31T11:28:13.122Z,13.49
2017-10-31T11:29:19.476Z,13.51
2017-10-31T11:30:28.736Z,13.54
2017-10-31T11:31:35.069Z,13.50
2017-10-31T11:32:41.346Z,13.39
2017-10-31T11:33:47.669Z,13.30
2017-10-31T11:34:54.328Z,13.32
2017-10-31T11:36:00.612Z,13.26
2017-10-31T11:37:09.244Z,13.14
2017-10-31T11:38:15.935Z,13.08
2017-10-31T11:39:22.311Z,13.10
2017-10-31T11:40:28.486Z,13.00
2017-10-31T11:41:35.544Z,13.03
2017-10-31T11:42:41.798Z,13.00
2017-10-31T11:43:48.672Z,13.06
2017-10-31T11:44:55.339Z,13.04
2017-10-31T11:46:02.202Z,13.01
2017-10-31T11:47:08.345Z,12.86
2017-10-31T11:48:14.598Z,12.75
2017-10-31T11:49:21.326Z,13.11
2017-10-31T11:50:28.231Z,13.05
2017-10-31T11:51:34.316Z,13.04
2017-10-31T11:52:40.484Z,13.02
2017-10-31T11:53:46.507Z,12.98
2017-10-31T11:54:52.737Z,12.79
2017-10-31T11:55:58.891Z,12.77
2017-10-31T11:57:05.667Z,12.74
2017-10-31T11:58:12.235Z,12.70
2017-10-31T11:59:18.462Z,12.74
2017-10-31T12:00:24.514Z,12.67
2017-10-31T12:01:30.633Z,12.65
2017-10-31T12:02:37.815Z,12.51
2017-10-31T12:03:43.759Z,12.44
2017-10-31T12:04:51.282Z,12.54
2017-10-31T12:05:57.927Z,12.57
2017-10-31T12:07:04.079Z,12.67
2017-10-31T12:08:10.228Z,12.68
2017-10-31T12:09:16.375Z,12.68
2017-10-31T12:10:22.477Z,12.68
2017-10-31T12:11:30.501Z,12.65
2017-10-31T12:12:36.672Z,12.55
2017-10-31T12:13:42.738Z,12.50
2017-10-31T12:14:49.690Z,12.54
2017-10-31T12:15:55.831Z,12.61
2017-10-31T12:17:01.860Z,12.63
2017-10-31T12:18:08.664Z,12.58
2017-10-31T12:19:14.811Z,12.58
2017-10-31T12:20:20.917Z,13.00
2017-10-31T12:21:27.233Z,12.90
2017-10-31T12:22:33.633Z,12.82
2017-10-31T12:23:39.607Z,12.91
2017-10-31T12:24:45.529Z,12.97
2017-10-31T12:25:51.613Z,13.09
2017-10-31T12:26:57.867Z,13.18
2017-10-31T12:28:03.865Z,13.27
2017-10-31T12:29:09.960Z,13.05
2017-10-31T12:30:16.005Z,13.05
2017-10-31T12:31:22.799Z,12.82
2017-10-31T12:32:28.946Z,12.79
2017-10-31T12:33:35.099Z,12.60
2017-10-31T12:34:41.249Z,12.69
2017-10-31T12:35:47.461Z,12.76
2017-10-31T12:36:54.307Z,12.95
2017-10-31T12:38:00.254Z,12.99
2017-10-31T12:39:07.981Z,12.91
2017-10-31T12:40:13.948Z,12.91
2017-10-31T12:41:20.070Z,12.86
2017-10-31T12:42:27.013Z,12.81
2017-10-31T12:43:33.347Z,12.90
2017-10-31T12:44:41.329Z,12.98
2017-10-31T12:45:48.394Z,13.08
2017-10-31T12:46:55.476Z,13.18
2017-10-31T12:48:02.440Z,13.08
2017-10-31T12:49:10.294Z,13.15
2017-10-31T12:50:19.181Z,13.21
2017-10-31T12:51:27.764Z,13.19
2017-10-31T12:52:34.901Z,13.15
2017-10-31T12:53:45.975Z,13.15
2017-10-31T12:54:53.001Z,13.26
2017-10-31T12:56:01.176Z,13.11
2017-10-31T12:57:07.588Z,13.19
2017-10-31T12:58:13.757Z,13.28
2017-10-31T12:59:22.980Z,13.28
2017-10-31T13:00:29.296Z,13.37
2017-10-31T13:01:36.213Z,13.34
2017-10-31T13:02:42.457Z,13.28
2017-10-31T13:03:49.812Z,13.33
2017-10-31T13:04:57.522Z,13.39
2017-10-31T13:06:03.322Z,13.44
2017-10-31T13:07:21.020Z,13.60
2017-10-31T13:08:28.623Z,13.58
2017-10-31T13:09:35.866Z,13.47
2017-10-31T13:10:44.173Z,13.33
2017-10-31T13:11:51.359Z,13.26
2017-10-31T13:12:58.882Z,13.26
2017-10-31T13:14:07.348Z,13.17
2017-10-31T13:15:14.669Z,13.11
2017-10-31T13:16:20.840Z,12.99
2017-10-31T13:17:27.252Z,12.96
2017-10-31T13:18:34.389Z,13.02
2017-10-31T13:19:40.726Z,13.06
2017-10-31T13:20:47.056Z,12.98
2017-10-31T13:21:53.296Z,12.95
2017-10-31T13:23:00.548Z,12.96
2017-10-31T13:24:08.937Z,12.94
2017-10-31T13:25:15.495Z,12.87
2017-10-31T13:26:22.958Z,13.07
2017-10-31T13:27:30.159Z,12.83
2017-10-31T13:28:39.174Z,13.05
2017-10-31T13:29:46.753Z,13.02
2017-10-31T13:30:54.523Z,12.88
2017-10-31T13:32:01.923Z,12.63
2017-10-31T13:33:12.060Z,12.59
2017-10-31T13:34:20.446Z,12.48
2017-10-31T13:35:27.987Z,12.48
2017-10-31T13:36:35.755Z,12.24
2017-10-31T13:37:44.289Z,12.19
2017-10-31T13:38:54.723Z,12.31
2017-10-31T13:40:02.392Z,12.35
2017-10-31T13:41:09.723Z,12.35
2017-10-31T13:42:16.749Z,12.41
2017-10-31T13:43:25.120Z,12.52
2017-10-31T13:44:34.064Z,12.60
2017-10-31T13:45:40.624Z,12.69
2017-10-31T13:46:49.617Z,12.77
2017-10-31T13:47:57.453Z,12.61
2017-10-31T13:49:05.037Z,12.61
2017-10-31T13:50:11.908Z,12.50
2017-10-31T13:51:21.991Z,12.57
2017-10-31T13:52:29.386Z,12.74
2017-10-31T13:53:36.481Z,12.76
2017-10-31T13:54:44.070Z,12.70
2017-10-31T13:55:51.073Z,12.64
2017-10-31T13:56:59.069Z,12.56
2017-10-31T13:58:06.136Z,12.52
2017-10-31T13:59:13.821Z,12.48
2017-10-31T14:00:23.229Z,12.45
2017-10-31T14:01:31.135Z,12.52
2017-10-31T14:02:39.254Z,12.53
2017-10-31T14:03:48.261Z,12.55
2017-10-31T14:04:55.122Z,12.54
2017-10-31T14:06:02.180Z,12.58
2017-10-31T14:07:08.784Z,12.37
2017-10-31T14:08:15.730Z,12.32
2017-10-31T14:09:22.792Z,12.28
2017-10-31T14:10:29.436Z,12.27
2017-10-31T14:11:36.234Z,12.23
2017-10-31T14:12:43.996Z,12.38
2017-10-31T14:13:51.144Z,12.28
2017-10-31T14:14:58.224Z,12.21
2017-10-31T14:16:04.283Z,12.12
2017-10-31T14:17:10.328Z,12.24
2017-10-31T14:18:17.260Z,12.32
2017-10-31T14:19:24.081Z,12.40
2017-10-31T14:20:32.534Z,12.42
2017-10-31T14:21:39.235Z,12.31
2017-10-31T14:22:45.284Z,12.31
2017-10-31T14:23:51.623Z,12.27
2017-10-31T14:24:57.720Z,12.20
2017-10-31T14:26:04.746Z,12.23
2017-10-31T14:27:10.962Z,12.32
2017-10-31T14:28:18.380Z,12.16